Time,TemperatureF,DewpointF,PressureIn,WindDirection,WindDirectionDegrees,WindSpeedMPH,WindSpeedGustMPH,Humidity,HourlyPrecipIn,Conditions,Clouds,dailyrainin,SoftwareType,DateUTC
2013-03-12 00:00:00,47.9,43.0,30.00,North,360,0.0,-999.0,84,-99.99,,,0.00,weatherlink.com 1.10,2013-03-12 05:00:00,
2013-03-12 00:13:00,47.6,43.0,30.00,WNW,303,2.0,-999.0,84,-99.99,,,0.00,weatherlink.com 1.10,2013-03-12 05:13:00,
2013-03-12 00:28:00,47.4,43.0,30.02,NW,313,2.0,-999.0,84,-99.99,,,0.00,weatherlink.com 1.10,2013-03-12 05:28:00,
2013-03-12 00:43:00,47.1,43.0,30.01,NNW,327,0.0,-999.0,84,-99.99,,,0.00,weatherlink.com 1.10,2013-03-12 05:43:00,
2013-03-12 00:59:00,46.8,43.0,30.02,NNW,327,0.0,-999.0,86,-99.99,,,0.00,weatherlink.com 1.10,2013-03-12 05:59:00,
2013-03-12 01:30:00,45.9,42.0,30.02,North,5,0.0,-999.0,86,-99.99,,,0.00,weatherlink.com 1.10,2013-03-12 06:30:00,
2013-03-12 01:43:00,45.7,42.0,30.02,NNW,337,0.0,-999.0,87,-99.99,,,0.00,weatherlink.com 1.10,2013-03-12 06:43:00,
2013-03-12 01:58:00,45.8,42.0,30.03,North,355,0.0,-999.0,85,-99.99,,,0.00,weatherlink.com 1.10,2013-03-12 06:58:00,
2013-03-12 02:13:00,45.9,42.0,30.03,North,5,0.0,-999.0,86,-99.99,,,0.00,weatherlink.com 1.10,2013-03-12 07:13:00,
2013-03-12 02:28:00,45.9,42.0,30.02,North,5,0.0,-999.0,86,-99.99,,,0.00,weatherlink.com 1.10,2013-03-12 07:28:00,
2013-03-12 02:43:00,45.8,42.0,30.02,North,360,0.0,-999.0,85,-99.99,,,0.00,weatherlink.com 1.10,2013-03-12 07:43:00,
2013-03-12 02:59:00,45.6,41.0,30.02,NW,323,2.0,-999.0,85,-99.99,,,0.00,weatherlink.com 1.10,2013-03-12 07:59:00,
2013-03-12 03:14:00,45.5,41.0,30.02,North,355,0.0,-999.0,85,-99.99,,,0.00,weatherlink.com 1.10,2013-03-12 08:14:00,
2013-03-12 03:28:00,45.3,41.0,30.02,North,355,4.0,-999.0,86,-99.99,,,0.00,weatherlink.com 1.10,2013-03-12 08:28:00,
2013-03-12 03:43:00,45.0,41.0,30.03,North,5,0.0,-999.0,86,-99.99,,,0.00,weatherlink.com 1.10,2013-03-12 08:43:00,
2013-03-12 03:59:00,44.7,41.0,30.03,NNW,346,0.0,-999.0,86,-99.99,,,0.00,weatherlink.com 1.10,2013-03-12 08:59:00,
2013-03-12 04:14:00,44.5,41.0,30.04,NNW,347,0.0,-999.0,86,-99.99,,,0.00,weatherlink.com 1.10,2013-03-12 09:14:00,
2013-03-12 04:29:00,44.0,40.0,30.04,NNW,347,0.0,-999.0,87,-99.99,,,0.00,weatherlink.com 1.10,2013-03-12 09:29:00,
2013-03-12 04:45:00,43.4,40.0,30.04,North,9,0.0,-999.0,88,-99.99,,,0.00,weatherlink.com 1.10,2013-03-12 09:45:00,
2013-03-12 04:59:00,43.0,40.0,30.05,North,9,0.0,-999.0,89,-99.99,,,0.00,weatherlink.com 1.10,2013-03-12 09:59:00,
2013-03-12 05:14:00,42.8,40.0,30.05,North,9,0.0,-999.0,90,-99.99,,,0.00,weatherlink.com 1.10,2013-03-12 10:14:00,
2013-03-12 05:29:00,42.7,40.0,30.06,North,9,0.0,-999.0,89,-99.99,,,0.00,weatherlink.com 1.10,2013-03-12 10:29:00,
2013-03-12 05:44:00,42.7,40.0,30.07,North,5,0.0,-999.0,90,-99.99,,,0.00,weatherlink.com 1.10,2013-03-12 10:44:00,
2013-03-12 05:59:00,42.4,39.0,30.07,North,5,0.0,-999.0,89,-99.99,,,0.00,weatherlink.com 1.10,2013-03-12 10:59:00,
2013-03-12 06:14:00,42.1,39.0,30.07,North,9,0.0,-999.0,90,-99.99,,,0.00,weatherlink.com 1.10,2013-03-12 11:14:00,
2013-03-12 06:29:00,41.8,39.0,30.07,North,9,0.0,-999.0,90,-99.99,,,0.00,weatherlink.com 1.10,2013-03-12 11:29:00,
2013-03-12 06:44:00,41.6,39.0,30.08,North,9,0.0,-999.0,91,-99.99,,,0.00,weatherlink.com 1.10,2013-03-12 11:44:00,
2013-03-12 06:59:00,41.2,39.0,30.08,North,9,0.0,-999.0,91,-99.99,,,0.00,weatherlink.com 1.10,2013-03-12 11:59:00,
2013-03-12 07:14:00,40.7,39.0,30.09,North,9,0.0,-999.0,92,-99.99,,,0.00,weatherlink.com 1.10,2013-03-12 12:14:00,
2013-03-12 07:29:00,40.5,39.0,30.10,North,9,0.0,-999.0,93,-99.99,,,0.00,weatherlink.com 1.10,2013-03-12 12:29:00,
2013-03-12 07:44:00,40.5,39.0,30.11,North,9,0.0,-999.0,93,-99.99,,,0.00,weatherlink.com 1.10,2013-03-12 12:44:00,
2013-03-12 07:59:00,40.9,39.0,30.11,North,11,0.0,-999.0,94,-99.99,,,0.00,weatherlink.com 1.10,2013-03-12 12:59:00,
2013-03-12 08:15:00,41.6,40.0,30.12,North,360,0.0,-999.0,93,-99.99,,,0.00,weatherlink.com 1.10,2013-03-12 13:15:00,
2013-03-12 09:00:00,43.9,41.0,30.13,North,5,0.0,-999.0,88,-99.99,,,0.00,weatherlink.com 1.10,2013-03-12 14:00:00,
2013-03-12 09:15:00,44.8,40.0,30.14,ENE,73,0.0,-999.0,84,-99.99,,,0.00,weatherlink.com 1.10,2013-03-12 14:15:00,
2013-03-12 09:30:00,45.8,40.0,30.14,North,11,2.0,-999.0,81,-99.99,,,0.00,weatherlink.com 1.10,2013-03-12 14:30:00,
2013-03-12 09:45:00,47.4,41.0,30.15,NE,53,2.0,-999.0,77,-99.99,,,0.00,weatherlink.com 1.10,2013-03-12 14:45:00,
2013-03-12 10:00:00,48.8,41.0,30.15,NNE,19,0.0,-999.0,75,-99.99,,,0.00,weatherlink.com 1.10,2013-03-12 15:00:00,
2013-03-12 10:15:00,50.4,41.0,30.15,NE,34,0.0,-999.0,70,-99.99,,,0.00,weatherlink.com 1.10,2013-03-12 15:15:00,
2013-03-12 10:30:00,51.9,42.0,30.14,ENE,63,2.0,-999.0,68,-99.99,,,0.00,weatherlink.com 1.10,2013-03-12 15:30:00,
2013-03-12 10:46:00,53.8,42.0,30.15,NNW,340,0.0,-999.0,65,-99.99,,,0.00,weatherlink.com 1.10,2013-03-12 15:46:00,
2013-03-12 11:01:00,55.0,42.0,30.15,East,79,1.0,-999.0,62,-99.99,,,0.00,weatherlink.com 1.10,2013-03-12 16:01:00,
2013-03-12 11:16:00,56.2,42.0,30.15,NNW,331,5.0,-999.0,59,-99.99,,,0.00,weatherlink.com 1.10,2013-03-12 16:16:00,
2013-03-12 11:31:00,57.4,42.0,30.15,NE,55,0.0,-999.0,56,-99.99,,,0.00,weatherlink.com 1.10,2013-03-12 16:31:00,
2013-03-12 12:16:00,61.1,42.0,30.14,ENE,66,1.0,-999.0,50,-99.99,,,0.00,weatherlink.com 1.10,2013-03-12 17:16:00,
2013-03-12 12:46:00,63.1,43.0,30.13,NW,315,0.0,-999.0,48,-99.99,,,0.00,weatherlink.com 1.10,2013-03-12 17:46:00,
2013-03-12 13:02:00,64.3,42.0,30.13,NE,51,1.0,-999.0,45,-99.99,,,0.00,weatherlink.com 1.10,2013-03-12 18:02:00,
2013-03-12 13:31:00,65.5,42.0,30.12,North,360,0.0,-999.0,42,-99.99,,,0.00,weatherlink.com 1.10,2013-03-12 18:31:00,
2013-03-12 13:46:00,65.6,42.0,30.11,North,9,0.0,-999.0,42,-99.99,,,0.00,weatherlink.com 1.10,2013-03-12 18:46:00,
2013-03-12 14:01:00,66.5,43.0,30.11,NNW,338,4.0,-999.0,42,-99.99,,,0.00,weatherlink.com 1.10,2013-03-12 19:01:00,
2013-03-12 14:18:00,66.8,42.0,30.10,NNW,329,1.0,-999.0,41,-99.99,,,0.00,weatherlink.com 1.10,2013-03-12 19:18:00,
2013-03-12 14:46:00,67.9,43.0,30.09,North,355,1.0,-999.0,40,-99.99,,,0.00,weatherlink.com 1.10,2013-03-12 19:46:00,
2013-03-12 15:32:00,69.3,40.0,30.08,NNW,345,4.0,-999.0,35,-99.99,,,0.00,weatherlink.com 1.10,2013-03-12 20:32:00,
2013-03-12 15:47:00,68.9,40.0,30.08,NNW,336,7.0,-999.0,35,-99.99,,,0.00,weatherlink.com 1.10,2013-03-12 20:47:00,
2013-03-12 16:01:00,69.7,41.0,30.08,NNW,336,0.0,-999.0,36,-99.99,,,0.00,weatherlink.com 1.10,2013-03-12 21:01:00,
2013-03-12 16:16:00,69.4,41.0,30.08,North,355,0.0,-999.0,36,-99.99,,,0.00,weatherlink.com 1.10,2013-03-12 21:16:00,
2013-03-12 16:46:00,69.4,43.0,30.09,NNW,340,4.0,-999.0,38,-99.99,,,0.00,weatherlink.com 1.10,2013-03-12 21:46:00,
2013-03-12 17:01:00,69.6,41.0,30.08,NNW,340,0.0,-999.0,36,-99.99,,,0.00,weatherlink.com 1.10,2013-03-12 22:01:00,
2013-03-12 17:16:00,69.2,40.0,30.08,NNW,328,0.0,-999.0,35,-99.99,,,0.00,weatherlink.com 1.10,2013-03-12 22:16:00,
2013-03-12 17:31:00,68.1,41.0,30.09,NNE,17,0.0,-999.0,37,-99.99,,,0.00,weatherlink.com 1.10,2013-03-12 22:31:00,
2013-03-12 17:46:00,67.0,41.0,30.09,North,351,6.0,-999.0,39,-99.99,,,0.00,weatherlink.com 1.10,2013-03-12 22:46:00,
2013-03-12 18:16:00,64.9,41.0,30.10,NNE,22,0.0,-999.0,42,-99.99,,,0.00,weatherlink.com 1.10,2013-03-12 23:16:00,
2013-03-12 18:31:00,63.9,40.0,30.11,North,360,0.0,-999.0,42,-99.99,,,0.00,weatherlink.com 1.10,2013-03-12 23:31:00,
2013-03-12 18:47:00,62.9,41.0,30.11,North,360,1.0,-999.0,45,-99.99,,,0.00,weatherlink.com 1.10,2013-03-12 23:47:00,
2013-03-12 19:02:00,61.6,40.0,30.12,North,5,0.0,-999.0,46,-99.99,,,0.00,weatherlink.com 1.10,2013-03-13 00:02:00,
2013-03-12 19:17:00,60.4,40.0,30.13,North,5,0.0,-999.0,48,-99.99,,,0.00,weatherlink.com 1.10,2013-03-13 00:17:00,
2013-03-12 19:32:00,58.9,41.0,30.13,North,5,0.0,-999.0,52,-99.99,,,0.00,weatherlink.com 1.10,2013-03-13 00:32:00,
2013-03-12 19:47:00,57.3,42.0,30.14,North,5,0.0,-999.0,56,-99.99,,,0.00,weatherlink.com 1.10,2013-03-13 00:47:00,
2013-03-12 20:02:00,56.2,42.0,30.15,North,5,0.0,-999.0,60,-99.99,,,0.00,weatherlink.com 1.10,2013-03-13 01:02:00,
2013-03-12 20:17:00,54.8,42.0,30.15,North,5,0.0,-999.0,62,-99.99,,,0.00,weatherlink.com 1.10,2013-03-13 01:17:00,
2013-03-12 20:31:00,53.9,42.0,30.16,North,5,0.0,-999.0,65,-99.99,,,0.00,weatherlink.com 1.10,2013-03-13 01:31:00,
2013-03-12 20:48:00,52.9,43.0,30.16,North,5,0.0,-999.0,69,-99.99,,,0.00,weatherlink.com 1.10,2013-03-13 01:48:00,
2013-03-12 21:01:00,52.2,43.0,30.16,North,5,0.0,-999.0,70,-99.99,,,0.00,weatherlink.com 1.10,2013-03-13 02:01:00,
2013-03-12 21:17:00,51.5,43.0,30.17,North,5,0.0,-999.0,72,-99.99,,,0.00,weatherlink.com 1.10,2013-03-13 02:17:00,
2013-03-12 21:47:00,50.2,43.0,30.18,North,5,0.0,-999.0,77,-99.99,,,0.00,weatherlink.com 1.10,2013-03-13 02:47:00,
2013-03-12 22:02:00,49.7,43.0,30.19,North,5,0.0,-999.0,79,-99.99,,,0.00,weatherlink.com 1.10,2013-03-13 03:02:00,
2013-03-12 22:17:00,49.3,44.0,30.19,North,5,0.0,-999.0,81,-99.99,,,0.00,weatherlink.com 1.10,2013-03-13 03:17:00,
2013-03-12 22:32:00,48.8,43.0,30.20,North,5,0.0,-999.0,81,-99.99,,,0.00,weatherlink.com 1.10,2013-03-13 03:32:00,
2013-03-12 22:47:00,48.5,44.0,30.19,North,5,0.0,-999.0,83,-99.99,,,0.00,weatherlink.com 1.10,2013-03-13 03:47:00,
2013-03-12 23:02:00,48.1,43.0,30.20,North,5,0.0,-999.0,83,-99.99,,,0.00,weatherlink.com 1.10,2013-03-13 04:02:00,
2013-03-12 23:17:00,47.7,43.0,30.19,North,5,0.0,-999.0,85,-99.99,,,0.00,weatherlink.com 1.10,2013-03-13 04:17:00,
2013-03-12 23:33:00,47.5,44.0,30.20,North,5,0.0,-999.0,86,-99.99,,,0.00,weatherlink.com 1.10,2013-03-13 04:33:00,
2013-03-12 23:47:00,47.2,43.0,30.19,North,5,0.0,-999.0,86,-99.99,,,0.00,weatherlink.com 1.10,2013-03-13 04:47:00,